Irene, Illinois
Current Conditions -  °F | °C
As of 10:54 PM on Wednesday 26 Nov 2014 (Local Time) from KRFD Reporting Station
Haze Haze  
Wind Chill: 10°   Ceiling: Unl
Heat Index: 20°   Visibility: 5mi
Dew Point: 15°   Wind: 8mph
Humidity: 81%   Direction: 340°NNW
Pressure: 30.24"   Gusts: NA
Location:  42.1893°N, 88.9437°W
Report Text: KRFD 270454Z 34007KT 5SM HZ SCT250 M07/M09 A3024 RMK AO2 SLP251 T10671094
Loading
Personal Weather Stations






























Interactive Weather Map New forecast layout! Learn more

10-Day Weather Forecast

Advertisements
Track Severe Weather on mobile